Главная страница
METAR-TAF:

METAR-TAF

Аэропорты :

Wellsville Municipal Airport (Tarantine Field)

Wellsville, Нью-Йорк, США

широта: 42-06-27N, долгота: 077-59-04W, высота над уровнем моря: 647 м

Текущие метеонаблюдения

Эта сводка был подготовлена 24 минут назад, в 16:34 UTC
Ветер 10 Узел от южный с порывами до 19 Узел
Температура -6°C
Влажность 79%
Давление 1016 hPa
Видимость: 11.3 км
небольшая облачность на высоте 2800 фута
Рассеянная облачность на высоте 4200 фута
Сплошная облачность на высоте 5000 фута

METAR: KELZ 181634Z AUTO 17010G19KT 7SM FEW028 BKN042 OVC050 M06/M09 A3001 RMK AO2 SNE34 PRESFR P0000 T10611089 $

Время: 11:58 (16:58 UTC)


TAF: отсутствует

Метеонаблюдения и прогнозы для более 4000 аэропортов (сводки METAR и TAF).

Имеющиеся станции представлены на карте желтыми и красными точками.

Чтобы увидеть название станции, наведите на нее мышь.

Затем щелкните, чтобы увидеть метеонаблюдения и метеопрогнозы.

Управление картой: чтобы увеличить масштаб, щелкните зеленые кнопки с черным крестиком; чтобы уменьшить масштаб, щелкните зеленую кнопку с тире; для просмотра соседних карт щелкайте зеленые стрелки.


METAR-TAF: